createdAt,value
2023-05-07T00:00:15.075Z,53.86
2023-05-07T00:01:15.278Z,56.03
2023-05-07T00:02:15.035Z,44.53
2023-05-07T00:03:15.232Z,44.97
2023-05-07T00:04:15.168Z,53.24
2023-05-07T00:05:16.238Z,50.50
2023-05-07T00:06:15.003Z,43.36
2023-05-07T00:07:14.999Z,47.05
2023-05-07T00:08:15.009Z,48.59
2023-05-07T00:09:14.977Z,53.11
2023-05-07T00:10:14.970Z,42.30
2023-05-07T00:11:14.955Z,51.84
2023-05-07T00:12:14.987Z,47.71
2023-05-07T00:13:15.011Z,51.77
2023-05-07T00:14:14.942Z,49.74
2023-05-07T00:15:14.935Z,52.97
2023-05-07T00:16:14.953Z,57.67
2023-05-07T00:17:14.947Z,53.64
2023-05-07T00:18:14.914Z,54.54
2023-05-07T00:19:14.908Z,49.48
2023-05-07T00:20:14.904Z,51.41
2023-05-07T00:21:15.032Z,53.51
2023-05-07T00:22:14.921Z,47.93
2023-05-07T00:23:14.871Z,53.62
2023-05-07T00:24:14.864Z,49.43
2023-05-07T00:25:14.856Z,48.42
2023-05-07T00:26:14.850Z,44.91
2023-05-07T00:27:14.863Z,50.56
2023-05-07T00:28:14.830Z,59.53
2023-05-07T00:29:14.821Z,47.04
2023-05-07T00:30:14.816Z,52.19
2023-05-07T00:31:14.843Z,49.21
2023-05-07T00:32:14.863Z,54.95
2023-05-07T00:33:14.811Z,55.73
2023-05-07T00:34:14.788Z,54.97
2023-05-07T00:35:14.776Z,43.62
2023-05-07T00:36:14.802Z,43.00
2023-05-07T00:37:14.811Z,47.96
2023-05-07T00:38:14.755Z,42.39
2023-05-07T00:39:14.762Z,44.01
2023-05-07T00:40:14.738Z,49.85
2023-05-07T00:41:14.767Z,46.60
2023-05-07T00:42:14.727Z,53.63
2023-05-07T00:43:14.717Z,47.35
2023-05-07T00:44:14.713Z,42.50
2023-05-07T00:45:14.732Z,47.91
2023-05-07T00:46:14.749Z,60.28
2023-05-07T00:47:14.685Z,60.24
2023-05-07T00:48:15.259Z,57.69
2023-05-07T00:49:14.670Z,47.33
2023-05-07T00:50:14.782Z,52.10
2023-05-07T00:51:14.655Z,57.26
2023-05-07T00:52:14.658Z,55.97
2023-05-07T00:53:14.702Z,43.87
2023-05-07T00:54:14.629Z,42.94
2023-05-07T00:55:14.645Z,42.33
2023-05-07T00:56:14.619Z,49.13
2023-05-07T00:57:14.637Z,41.43
2023-05-07T00:58:14.596Z,52.34
2023-05-07T00:59:14.621Z,46.38
2023-05-07T01:00:14.929Z,53.07
2023-05-07T01:01:14.588Z,49.27
2023-05-07T01:02:14.557Z,49.99
2023-05-07T01:03:14.555Z,42.81
2023-05-07T01:04:14.653Z,44.96
2023-05-07T01:05:14.566Z,52.50
2023-05-07T01:06:14.567Z,43.81
2023-05-07T01:07:14.533Z,49.22
2023-05-07T01:08:14.524Z,53.00
2023-05-07T01:09:14.593Z,49.99
2023-05-07T01:10:14.680Z,54.62
2023-05-07T01:11:14.495Z,47.22
2023-05-07T01:12:14.492Z,54.44
2023-05-07T01:13:14.521Z,46.83
2023-05-07T01:14:14.504Z,44.67
2023-05-07T01:15:14.470Z,44.73
2023-05-07T01:16:14.461Z,45.19
2023-05-07T01:17:14.562Z,44.11
2023-05-07T01:18:14.456Z,51.53
2023-05-07T01:19:14.465Z,44.63
2023-05-07T01:20:14.653Z,49.36
2023-05-07T01:21:14.417Z,48.52
2023-05-07T01:22:14.415Z,54.25
2023-05-07T01:23:14.440Z,50.31
2023-05-07T01:24:14.443Z,47.90
2023-05-07T01:25:14.449Z,51.49
2023-05-07T01:26:14.385Z,50.03
2023-05-07T01:27:14.371Z,45.00
2023-05-07T01:28:14.407Z,51.68
2023-05-07T01:29:14.360Z,46.87
2023-05-07T01:30:14.473Z,51.82
2023-05-07T01:31:14.376Z,43.82
2023-05-07T01:32:14.344Z,49.64
2023-05-07T01:33:14.359Z,54.08
2023-05-07T01:34:14.315Z,61.99
2023-05-07T01:35:14.310Z,46.84
2023-05-07T01:36:14.328Z,42.56
2023-05-07T01:37:14.296Z,43.42
2023-05-07T01:38:14.321Z,49.12
2023-05-07T01:39:14.288Z,50.95
2023-05-07T01:40:14.276Z,55.90
2023-05-07T01:41:14.375Z,48.19
2023-05-07T01:42:14.274Z,45.49
2023-05-07T01:43:14.274Z,49.57
2023-05-07T01:44:14.246Z,41.99
2023-05-07T01:45:14.233Z,52.56
2023-05-07T01:46:14.280Z,54.58
2023-05-07T01:47:14.256Z,56.65
2023-05-07T01:48:14.205Z,51.42
2023-05-07T01:49:14.205Z,43.11
2023-05-07T01:50:14.360Z,47.14
2023-05-07T01:51:14.191Z,48.92
2023-05-07T01:52:14.204Z,50.33
2023-05-07T01:53:14.169Z,52.02
2023-05-07T01:54:14.169Z,50.43
2023-05-07T01:55:14.153Z,46.93
2023-05-07T01:56:14.145Z,53.30
2023-05-07T01:57:14.159Z,46.41
2023-05-07T01:58:14.132Z,56.01
2023-05-07T01:59:14.119Z,44.98
2023-05-07T02:00:14.138Z,44.08
2023-05-07T02:01:14.192Z,57.50
2023-05-07T02:02:14.179Z,46.81
2023-05-07T02:03:14.176Z,51.49
2023-05-07T02:04:14.242Z,52.91
2023-05-07T02:05:14.074Z,44.70
2023-05-07T02:06:14.106Z,51.37
2023-05-07T02:07:14.063Z,43.83
2023-05-07T02:08:14.057Z,52.63
2023-05-07T02:09:14.047Z,45.91
2023-05-07T02:10:14.078Z,49.12
2023-05-07T02:11:14.051Z,50.92
2023-05-07T02:12:14.043Z,48.73
2023-05-07T02:13:14.122Z,47.32
2023-05-07T02:14:14.010Z,44.54
2023-05-07T02:15:14.031Z,51.69
2023-05-07T02:16:14.023Z,51.82
2023-05-07T02:17:13.984Z,47.48
2023-05-07T02:18:13.984Z,53.35
2023-05-07T02:19:13.984Z,45.88
2023-05-07T02:20:13.990Z,53.11
2023-05-07T02:21:13.955Z,56.51
2023-05-07T02:22:13.952Z,44.68
2023-05-07T02:23:13.940Z,45.34
2023-05-07T02:24:13.933Z,42.72
2023-05-07T02:25:13.951Z,42.80
2023-05-07T02:26:13.915Z,46.83
2023-05-07T02:27:13.911Z,47.70
2023-05-07T02:28:13.902Z,52.53
2023-05-07T02:29:14.099Z,55.92
2023-05-07T02:30:13.904Z,61.28
2023-05-07T02:31:14.878Z,49.40
2023-05-07T02:32:13.934Z,45.54
2023-05-07T02:33:13.892Z,61.43
2023-05-07T02:34:13.908Z,54.43
2023-05-07T02:35:13.845Z,50.80
2023-05-07T02:36:13.844Z,43.41
2023-05-07T02:37:13.835Z,53.27
2023-05-07T02:38:13.820Z,51.71
2023-05-07T02:39:13.833Z,64.13
2023-05-07T02:40:13.955Z,53.21
2023-05-07T02:41:13.800Z,43.63
2023-05-07T02:42:13.794Z,50.25
2023-05-07T02:43:13.791Z,45.94
2023-05-07T02:44:13.806Z,47.11
2023-05-07T02:45:13.874Z,54.08
2023-05-07T02:46:13.805Z,49.99
2023-05-07T02:47:13.752Z,44.59
2023-05-07T02:48:13.769Z,49.39
2023-05-07T02:49:13.763Z,45.76
2023-05-07T02:50:13.999Z,57.08
2023-05-07T02:51:13.742Z,47.58
2023-05-07T02:52:13.715Z,46.79
2023-05-07T02:53:13.735Z,47.38
2023-05-07T02:54:13.708Z,46.64
2023-05-07T02:55:13.696Z,55.92
2023-05-07T02:56:13.690Z,55.24
2023-05-07T02:57:13.678Z,48.33
2023-05-07T02:58:13.690Z,47.73
2023-05-07T02:59:13.665Z,55.19
2023-05-07T03:00:13.652Z,51.30
2023-05-07T03:01:13.716Z,53.22
2023-05-07T03:02:13.670Z,48.21
2023-05-07T03:03:13.688Z,47.70
2023-05-07T03:04:13.672Z,50.79
2023-05-07T03:05:13.650Z,49.31
2023-05-07T03:06:13.606Z,49.43
2023-05-07T03:07:13.637Z,51.46
2023-05-07T03:08:13.589Z,46.35
2023-05-07T03:09:13.583Z,49.66
2023-05-07T03:10:13.651Z,47.39
2023-05-07T03:11:13.570Z,51.29
2023-05-07T03:12:13.584Z,47.62
2023-05-07T03:13:13.629Z,54.82
2023-05-07T03:14:13.552Z,49.45
2023-05-07T03:15:13.608Z,48.43
2023-05-07T03:16:13.579Z,64.38
2023-05-07T03:17:13.599Z,51.92
2023-05-07T03:18:13.642Z,49.32
2023-05-07T03:19:13.509Z,54.78
2023-05-07T03:20:13.702Z,55.97
2023-05-07T03:21:13.512Z,52.97
2023-05-07T03:22:13.500Z,58.50
2023-05-07T03:23:13.461Z,59.02
2023-05-07T03:24:14.457Z,50.93
2023-05-07T03:25:13.454Z,53.66
2023-05-07T03:26:13.476Z,57.02
2023-05-07T03:27:13.459Z,52.73
2023-05-07T03:28:13.437Z,57.38
2023-05-07T03:29:13.438Z,51.48
2023-05-07T03:30:13.484Z,54.45
2023-05-07T03:31:13.481Z,54.61
2023-05-07T03:32:13.400Z,53.61
2023-05-07T03:33:13.449Z,50.52
2023-05-07T03:34:13.392Z,55.07
2023-05-07T03:35:13.425Z,47.50
2023-05-07T03:36:13.393Z,49.26
2023-05-07T03:37:13.375Z,59.47
2023-05-07T03:38:13.356Z,51.23
2023-05-07T03:39:13.349Z,52.72
2023-05-07T03:40:13.631Z,54.90
2023-05-07T03:41:13.445Z,53.02
2023-05-07T03:42:13.322Z,57.81
2023-05-07T03:43:13.323Z,58.21
2023-05-07T03:44:13.312Z,53.94
2023-05-07T03:45:13.334Z,47.14
2023-05-07T03:46:13.311Z,51.96
2023-05-07T03:47:13.286Z,56.09
2023-05-07T03:48:13.328Z,51.69
2023-05-07T03:49:13.316Z,52.05
2023-05-07T03:50:13.501Z,55.52
2023-05-07T03:51:13.254Z,55.28
2023-05-07T03:52:13.244Z,58.72
2023-05-07T03:53:13.238Z,49.89
2023-05-07T03:54:13.259Z,52.21
2023-05-07T03:55:13.240Z,53.04
2023-05-07T03:56:13.228Z,57.44
2023-05-07T03:57:13.212Z,54.15
2023-05-07T03:58:13.210Z,60.13
2023-05-07T03:59:13.230Z,57.19
2023-05-07T04:00:13.514Z,53.37
2023-05-07T04:01:13.194Z,61.72
2023-05-07T04:02:13.225Z,54.80
2023-05-07T04:03:13.220Z,56.80
2023-05-07T04:04:13.340Z,54.60
2023-05-07T04:05:13.204Z,53.26
2023-05-07T04:06:13.140Z,62.66
2023-05-07T04:07:13.144Z,55.26
2023-05-07T04:08:13.158Z,53.01
2023-05-07T04:09:13.166Z,58.43
2023-05-07T04:10:13.311Z,53.78
2023-05-07T04:11:13.101Z,52.86
2023-05-07T04:12:13.087Z,51.31
2023-05-07T04:13:13.149Z,53.12
2023-05-07T04:14:13.085Z,56.07
2023-05-07T04:15:13.090Z,55.74
2023-05-07T04:16:13.093Z,48.25
2023-05-07T04:17:14.067Z,55.92
2023-05-07T04:18:13.073Z,53.19
2023-05-07T04:19:13.038Z,44.91
2023-05-07T04:20:13.268Z,50.84
2023-05-07T04:21:13.072Z,50.64
2023-05-07T04:22:13.080Z,48.01
2023-05-07T04:23:13.030Z,50.97
2023-05-07T04:24:13.002Z,58.75
2023-05-07T04:25:13.006Z,51.91
2023-05-07T04:26:12.983Z,51.02
2023-05-07T04:27:13.036Z,53.28
2023-05-07T04:28:12.979Z,56.38
2023-05-07T04:29:12.955Z,55.39
2023-05-07T04:30:13.158Z,55.46
2023-05-07T04:31:12.954Z,52.91
2023-05-07T04:32:12.991Z,49.99
2023-05-07T04:33:13.091Z,56.81
2023-05-07T04:34:12.925Z,54.95
2023-05-07T04:35:12.912Z,49.46
2023-05-07T04:36:12.935Z,56.79
2023-05-07T04:37:12.978Z,51.45
2023-05-07T04:38:12.897Z,56.13
2023-05-07T04:39:12.885Z,48.66
2023-05-07T04:40:13.108Z,65.75
2023-05-07T04:41:12.897Z,57.84
2023-05-07T04:42:12.859Z,50.32
2023-05-07T04:43:12.850Z,51.98
2023-05-07T04:44:12.855Z,47.38
2023-05-07T04:45:12.840Z,52.02
2023-05-07T04:46:12.978Z,52.72
2023-05-07T04:47:12.820Z,52.11
2023-05-07T04:48:12.812Z,51.90
2023-05-07T04:49:12.800Z,50.47
2023-05-07T04:50:13.145Z,49.41
2023-05-07T04:51:12.812Z,57.00
2023-05-07T04:52:12.781Z,54.90
2023-05-07T04:53:12.772Z,53.35
2023-05-07T04:54:12.762Z,49.76
2023-05-07T04:55:12.779Z,53.73
2023-05-07T04:56:12.769Z,51.42
2023-05-07T04:57:12.761Z,46.11
2023-05-07T04:58:12.720Z,58.64
2023-05-07T04:59:12.733Z,55.78
2023-05-07T05:00:12.995Z,50.08
2023-05-07T05:01:12.745Z,50.56
2023-05-07T05:02:12.706Z,63.62
2023-05-07T05:03:12.787Z,57.19
2023-05-07T05:04:12.723Z,52.54
2023-05-07T05:05:12.701Z,49.15
2023-05-07T05:06:12.669Z,51.40
2023-05-07T05:07:12.661Z,53.41
2023-05-07T05:08:12.660Z,45.81
2023-05-07T05:09:12.731Z,46.92
2023-05-07T05:10:12.836Z,53.43
2023-05-07T05:11:12.629Z,54.63
2023-05-07T05:12:12.629Z,68.42
2023-05-07T05:13:12.684Z,57.26
2023-05-07T05:14:12.639Z,49.27
2023-05-07T05:15:12.614Z,52.44
2023-05-07T05:16:12.612Z,53.75
2023-05-07T05:17:12.612Z,50.16
2023-05-07T05:18:12.612Z,60.30
2023-05-07T05:19:12.610Z,54.04
2023-05-07T05:20:12.736Z,54.69
2023-05-07T05:21:12.557Z,54.90
2023-05-07T05:22:12.556Z,52.31
2023-05-07T05:23:12.580Z,53.47
2023-05-07T05:24:12.550Z,53.93
2023-05-07T05:25:12.608Z,55.44
2023-05-07T05:26:12.513Z,50.00
2023-05-07T05:27:12.518Z,50.91
2023-05-07T05:28:12.538Z,49.28
2023-05-07T05:29:12.497Z,48.56
2023-05-07T05:30:12.674Z,61.68
2023-05-07T05:31:12.538Z,49.41
2023-05-07T05:32:12.500Z,60.24
2023-05-07T05:33:12.541Z,55.41
2023-05-07T05:34:12.462Z,54.71
2023-05-07T05:35:12.460Z,58.34
2023-05-07T05:36:12.445Z,52.93
2023-05-07T05:37:12.459Z,57.30
2023-05-07T05:38:12.441Z,54.17
2023-05-07T05:39:12.424Z,49.61
2023-05-07T05:40:12.534Z,52.38
2023-05-07T05:41:12.398Z,57.51
2023-05-07T05:42:12.417Z,50.72
2023-05-07T05:43:12.390Z,58.93
2023-05-07T05:44:12.379Z,55.31
2023-05-07T05:45:12.385Z,53.77
2023-05-07T05:46:12.405Z,65.38
2023-05-07T05:47:12.382Z,55.70
2023-05-07T05:48:12.413Z,48.45
2023-05-07T05:49:12.347Z,54.83
2023-05-07T05:50:12.505Z,56.48
2023-05-07T05:51:12.364Z,50.91
2023-05-07T05:52:12.321Z,53.50
2023-05-07T05:53:12.313Z,58.42
2023-05-07T05:54:12.367Z,55.19
2023-05-07T05:55:12.307Z,55.66
2023-05-07T05:56:12.323Z,65.82
2023-05-07T05:57:12.282Z,54.92
2023-05-07T05:58:12.274Z,55.95
2023-05-07T05:59:12.315Z,57.46
2023-05-07T06:00:12.513Z,55.35
2023-05-07T06:01:12.275Z,58.01
2023-05-07T06:02:12.296Z,56.71
2023-05-07T06:03:14.312Z,55.92
2023-05-07T06:04:12.232Z,57.99
2023-05-07T06:05:12.332Z,55.16
2023-05-07T06:06:12.207Z,56.29
2023-05-07T06:07:12.212Z,55.84
2023-05-07T06:08:12.203Z,51.25
2023-05-07T06:09:13.218Z,57.44
2023-05-07T06:10:12.372Z,50.87
2023-05-07T06:11:12.169Z,54.86
2023-05-07T06:12:12.162Z,53.99
2023-05-07T06:13:12.208Z,58.14
2023-05-07T06:14:12.149Z,62.12
2023-05-07T06:15:12.179Z,56.96
2023-05-07T06:16:12.146Z,55.20
2023-05-07T06:17:12.132Z,44.94
2023-05-07T06:18:12.151Z,58.06
2023-05-07T06:19:12.140Z,59.76
2023-05-07T06:20:12.333Z,50.34
2023-05-07T06:21:12.087Z,60.17
2023-05-07T06:22:12.073Z,56.30
2023-05-07T06:23:13.093Z,59.99
2023-05-07T06:24:12.103Z,54.40
2023-05-07T06:25:12.064Z,53.69
2023-05-07T06:26:12.074Z,56.38
2023-05-07T06:27:12.049Z,58.08
2023-05-07T06:28:12.035Z,55.93
2023-05-07T06:29:12.251Z,56.99
2023-05-07T06:30:12.271Z,56.47
2023-05-07T06:31:12.021Z,54.49
2023-05-07T06:32:12.145Z,55.69
2023-05-07T06:33:12.098Z,55.51
2023-05-07T06:34:12.020Z,55.11
2023-05-07T06:35:11.983Z,56.89
2023-05-07T06:36:11.991Z,59.03
2023-05-07T06:37:11.979Z,58.34
2023-05-07T06:38:11.981Z,58.08
2023-05-07T06:39:11.950Z,55.55
2023-05-07T06:40:12.111Z,58.12
2023-05-07T06:41:11.957Z,52.40
2023-05-07T06:42:11.934Z,60.61
2023-05-07T06:43:11.950Z,64.36
2023-05-07T06:44:11.922Z,60.18
2023-05-07T06:45:11.920Z,55.95
2023-05-07T06:46:11.937Z,60.20
2023-05-07T06:47:13.805Z,60.62
2023-05-07T06:48:11.919Z,56.12
2023-05-07T06:49:11.868Z,58.86
2023-05-07T06:50:12.941Z,57.61
2023-05-07T06:51:11.860Z,56.33
2023-05-07T06:52:11.881Z,51.82
2023-05-07T06:53:11.847Z,60.64
2023-05-07T06:54:11.834Z,57.51
2023-05-07T06:55:11.831Z,55.86
2023-05-07T06:56:11.823Z,56.00
2023-05-07T06:57:11.853Z,64.48
2023-05-07T06:58:11.816Z,64.95
2023-05-07T06:59:11.813Z,62.98
2023-05-07T07:00:12.012Z,59.12
2023-05-07T07:01:11.833Z,61.59
2023-05-07T07:02:11.803Z,59.80
2023-05-07T07:03:11.777Z,56.33
2023-05-07T07:04:11.784Z,58.66
2023-05-07T07:05:11.809Z,54.09
2023-05-07T07:06:11.768Z,58.13
2023-05-07T07:07:11.757Z,59.10
2023-05-07T07:08:11.735Z,57.53
2023-05-07T07:09:11.716Z,58.38
2023-05-07T07:10:11.908Z,56.94
2023-05-07T07:11:11.742Z,54.85
2023-05-07T07:12:12.697Z,60.15
2023-05-07T07:13:11.719Z,58.53
2023-05-07T07:14:11.676Z,60.49
2023-05-07T07:15:11.679Z,55.39
2023-05-07T07:16:11.716Z,61.92
2023-05-07T07:17:11.707Z,58.86
2023-05-07T07:18:11.672Z,59.08
2023-05-07T07:19:11.651Z,59.81
2023-05-07T07:20:12.219Z,60.73
2023-05-07T07:21:12.649Z,62.48
2023-05-07T07:22:11.614Z,58.12
2023-05-07T07:23:11.611Z,59.99
2023-05-07T07:24:11.600Z,59.07
2023-05-07T07:25:11.609Z,58.46
2023-05-07T07:26:12.628Z,57.34
2023-05-07T07:27:11.585Z,60.00
2023-05-07T07:28:11.582Z,59.47
2023-05-07T07:29:11.558Z,64.18
2023-05-07T07:30:11.657Z,60.37
2023-05-07T07:31:11.575Z,61.43
2023-05-07T07:32:11.543Z,54.60
2023-05-07T07:33:11.560Z,58.60
2023-05-07T07:34:11.524Z,59.89
2023-05-07T07:35:11.540Z,59.79
2023-05-07T07:36:11.508Z,61.61
2023-05-07T07:37:11.502Z,63.18
2023-05-07T07:38:11.491Z,61.82
2023-05-07T07:39:11.502Z,58.25
2023-05-07T07:40:11.683Z,58.51
2023-05-07T07:41:11.478Z,58.92
2023-05-07T07:42:11.450Z,58.00
2023-05-07T07:43:11.446Z,61.09
2023-05-07T07:44:12.633Z,63.00
2023-05-07T07:45:11.426Z,60.14
2023-05-07T07:46:11.424Z,58.97
2023-05-07T07:47:11.463Z,61.33
2023-05-07T07:48:11.452Z,65.06
2023-05-07T07:49:11.472Z,62.10
2023-05-07T07:50:12.735Z,59.93
2023-05-07T07:51:11.377Z,62.40
2023-05-07T07:52:11.375Z,56.84
2023-05-07T07:53:11.359Z,62.76
2023-05-07T07:54:11.383Z,62.62
2023-05-07T07:55:11.342Z,60.93
2023-05-07T07:56:11.350Z,59.50
2023-05-07T07:57:11.347Z,57.62
2023-05-07T07:58:11.340Z,61.95
2023-05-07T07:59:11.342Z,56.37
2023-05-07T08:00:11.501Z,59.35
2023-05-07T08:01:11.312Z,56.21
2023-05-07T08:02:11.433Z,57.30
2023-05-07T08:03:11.734Z,59.59
2023-05-07T08:04:11.444Z,58.07
2023-05-07T08:05:11.348Z,60.52
2023-05-07T08:06:11.275Z,56.02
2023-05-07T08:07:11.258Z,61.41
2023-05-07T08:08:11.281Z,59.23
2023-05-07T08:09:11.248Z,61.49
2023-05-07T08:10:11.452Z,59.29
2023-05-07T08:11:11.238Z,62.18
2023-05-07T08:12:11.225Z,58.00
2023-05-07T08:13:11.288Z,60.13
2023-05-07T08:14:11.222Z,59.97
2023-05-07T08:15:11.208Z,58.08
2023-05-07T08:16:11.192Z,62.22
2023-05-07T08:17:11.294Z,56.01
2023-05-07T08:18:11.228Z,58.99
2023-05-07T08:19:11.203Z,59.72
2023-05-07T08:20:11.285Z,57.45
2023-05-07T08:21:11.263Z,59.35
2023-05-07T08:22:11.178Z,63.00
2023-05-07T08:23:11.225Z,57.12
2023-05-07T08:24:11.157Z,61.49
2023-05-07T08:25:11.128Z,60.92
2023-05-07T08:26:11.123Z,59.49
2023-05-07T08:27:11.136Z,61.76
2023-05-07T08:28:11.109Z,61.31
2023-05-07T08:29:11.113Z,58.93
2023-05-07T08:30:11.255Z,57.94
2023-05-07T08:31:11.131Z,60.32
2023-05-07T08:32:11.104Z,61.29
2023-05-07T08:33:11.274Z,64.82
2023-05-07T08:34:11.060Z,61.14
2023-05-07T08:35:11.046Z,61.41
2023-05-07T08:36:11.080Z,59.14
2023-05-07T08:37:11.035Z,57.78
2023-05-07T08:38:11.051Z,57.57
2023-05-07T08:39:11.018Z,57.25
2023-05-07T08:40:13.698Z,56.82
2023-05-07T08:41:11.028Z,64.55
2023-05-07T08:42:10.999Z,63.49
2023-05-07T08:43:10.994Z,60.02
2023-05-07T08:44:10.981Z,60.54
2023-05-07T08:45:11.000Z,58.86
2023-05-07T08:46:10.998Z,61.69
2023-05-07T08:47:10.950Z,57.65
2023-05-07T08:48:11.012Z,65.62
2023-05-07T08:49:10.955Z,61.51
2023-05-07T08:50:11.151Z,57.98
2023-05-07T08:51:10.913Z,53.37
2023-05-07T08:52:10.931Z,60.15
2023-05-07T08:53:10.958Z,61.90
2023-05-07T08:54:10.901Z,59.09
2023-05-07T08:55:11.210Z,60.37
2023-05-07T08:56:10.897Z,60.25
2023-05-07T08:57:10.905Z,59.69
2023-05-07T08:58:10.887Z,62.59
2023-05-07T08:59:10.892Z,59.30
2023-05-07T09:00:10.891Z,55.88
2023-05-07T09:01:10.843Z,58.13
2023-05-07T09:02:10.906Z,64.80
2023-05-07T09:03:10.889Z,59.00
2023-05-07T09:04:10.961Z,58.97
2023-05-07T09:05:11.071Z,58.87
2023-05-07T09:06:10.813Z,57.30
2023-05-07T09:07:10.796Z,61.86
2023-05-07T09:08:10.784Z,57.32
2023-05-07T09:09:10.998Z,60.77
2023-05-07T09:10:10.909Z,58.50
2023-05-07T09:11:10.761Z,59.77
2023-05-07T09:12:10.751Z,61.99
2023-05-07T09:13:10.775Z,60.71
2023-05-07T09:14:10.772Z,60.27
2023-05-07T09:15:10.919Z,60.63
2023-05-07T09:16:10.777Z,59.03
2023-05-07T09:17:10.723Z,63.69
2023-05-07T09:18:10.723Z,59.14
2023-05-07T09:19:10.730Z,62.35
2023-05-07T09:20:11.364Z,60.78
2023-05-07T09:21:11.701Z,59.48
2023-05-07T09:22:10.667Z,57.06
2023-05-07T09:23:10.710Z,62.02
2023-05-07T09:24:10.654Z,60.15
2023-05-07T09:25:11.058Z,58.94
2023-05-07T09:26:10.648Z,60.64
2023-05-07T09:27:10.629Z,62.31
2023-05-07T09:28:10.637Z,61.65
2023-05-07T09:29:10.610Z,62.93
2023-05-07T09:30:10.602Z,61.27
2023-05-07T09:31:10.674Z,61.35
2023-05-07T09:32:10.646Z,62.24
2023-05-07T09:33:10.635Z,60.14
2023-05-07T09:34:10.579Z,60.42
2023-05-07T09:35:10.733Z,61.34
2023-05-07T09:36:10.560Z,58.87
2023-05-07T09:37:10.566Z,60.49
2023-05-07T09:38:10.539Z,61.66
2023-05-07T09:39:10.540Z,60.14
2023-05-07T09:40:10.529Z,61.32
2023-05-07T09:41:10.633Z,60.38
2023-05-07T09:42:10.534Z,62.81
2023-05-07T09:43:10.499Z,63.66
2023-05-07T09:44:10.504Z,60.36
2023-05-07T09:45:10.666Z,59.64
2023-05-07T09:46:10.514Z,62.26
2023-05-07T09:47:10.499Z,59.86
2023-05-07T09:48:10.530Z,60.84
2023-05-07T09:49:11.257Z,62.81
2023-05-07T09:50:11.472Z,60.61
2023-05-07T09:51:10.478Z,61.44
2023-05-07T09:52:10.458Z,64.28
2023-05-07T09:53:10.427Z,61.01
2023-05-07T09:54:10.415Z,61.40
2023-05-07T09:55:10.528Z,58.86
2023-05-07T09:56:10.424Z,61.00
2023-05-07T09:57:10.447Z,57.91
2023-05-07T09:58:10.384Z,57.31
2023-05-07T09:59:10.384Z,62.49
2023-05-07T10:00:10.369Z,62.38
2023-05-07T10:01:10.446Z,57.80
2023-05-07T10:02:10.349Z,60.08
2023-05-07T10:03:10.437Z,61.24
2023-05-07T10:04:10.351Z,61.70
2023-05-07T10:05:10.579Z,61.70
2023-05-07T10:06:10.345Z,60.83
2023-05-07T10:07:10.313Z,61.83
2023-05-07T10:08:10.308Z,57.69
2023-05-07T10:09:10.295Z,60.81
2023-05-07T10:10:10.316Z,60.97
2023-05-07T10:11:10.301Z,63.17
2023-05-07T10:12:10.291Z,65.68
2023-05-07T10:13:10.421Z,55.93
2023-05-07T10:14:10.255Z,61.38
2023-05-07T10:15:10.582Z,61.51
2023-05-07T10:16:10.244Z,62.39
2023-05-07T10:17:10.321Z,57.69
2023-05-07T10:18:10.358Z,63.46
2023-05-07T10:19:10.226Z,58.89
2023-05-07T10:20:10.231Z,60.96
2023-05-07T10:21:10.209Z,63.15
2023-05-07T10:22:10.250Z,59.58
2023-05-07T10:23:10.182Z,62.78
2023-05-07T10:24:10.180Z,60.35
2023-05-07T10:25:10.544Z,60.18
2023-05-07T10:26:10.161Z,60.34
2023-05-07T10:27:10.164Z,59.64
2023-05-07T10:28:10.204Z,64.96
2023-05-07T10:29:10.161Z,60.12
2023-05-07T10:30:10.167Z,61.21
2023-05-07T10:31:10.151Z,55.95
2023-05-07T10:32:10.148Z,57.66
2023-05-07T10:33:10.244Z,58.88
2023-05-07T10:34:10.156Z,61.60
2023-05-07T10:35:10.248Z,56.86
2023-05-07T10:36:10.084Z,61.58
2023-05-07T10:37:10.080Z,62.30
2023-05-07T10:38:10.074Z,62.60
2023-05-07T10:39:10.086Z,65.21
2023-05-07T10:40:10.071Z,59.24
2023-05-07T10:41:10.101Z,55.43
2023-05-07T10:42:10.051Z,59.05
2023-05-07T10:43:11.152Z,62.01
2023-05-07T10:44:11.050Z,62.08
2023-05-07T10:45:10.101Z,58.76
2023-05-07T10:46:10.088Z,60.85
2023-05-07T10:47:10.000Z,57.10
2023-05-07T10:48:25.075Z,62.11
2023-05-07T10:49:11.985Z,62.67
2023-05-07T10:50:10.000Z,60.30
2023-05-07T10:51:09.971Z,66.26
2023-05-07T10:52:09.970Z,61.14
2023-05-07T10:53:09.999Z,58.01
2023-05-07T10:54:09.946Z,62.12
2023-05-07T10:55:10.099Z,59.81
2023-05-07T10:56:09.931Z,62.17
2023-05-07T10:57:09.940Z,59.18
2023-05-07T10:58:14.512Z,59.61
2023-05-07T10:59:11.903Z,60.51
2023-05-07T11:00:09.901Z,61.75
2023-05-07T11:01:10.030Z,65.93
2023-05-07T11:02:09.945Z,60.86
2023-05-07T11:03:09.915Z,64.22
2023-05-07T11:04:09.875Z,59.86
2023-05-07T11:05:10.125Z,59.11
2023-05-07T11:06:09.856Z,61.36
2023-05-07T11:07:09.880Z,59.34
2023-05-07T11:08:09.827Z,63.39
2023-05-07T11:09:09.833Z,62.61
2023-05-07T11:10:09.816Z,61.61
2023-05-07T11:11:09.829Z,62.31
2023-05-07T11:12:09.830Z,60.95
2023-05-07T11:13:09.811Z,59.81
2023-05-07T11:14:09.780Z,56.75
2023-05-07T11:15:09.900Z,61.59
2023-05-07T11:16:09.815Z,61.07
2023-05-07T11:17:09.859Z,59.52
2023-05-07T11:18:09.785Z,62.41
2023-05-07T11:19:09.745Z,61.19
2023-05-07T11:20:09.753Z,59.47
2023-05-07T11:21:09.751Z,59.81
2023-05-07T11:22:09.969Z,60.76
2023-05-07T11:23:09.717Z,56.29
2023-05-07T11:24:09.737Z,58.75
2023-05-07T11:25:09.990Z,62.46
2023-05-07T11:26:09.755Z,60.88
2023-05-07T11:27:09.697Z,59.55
2023-05-07T11:28:09.687Z,62.70
2023-05-07T11:29:09.672Z,58.90
2023-05-07T11:30:09.685Z,59.89
2023-05-07T11:31:09.718Z,56.69
2023-05-07T11:32:09.761Z,60.31
2023-05-07T11:33:09.729Z,59.95
2023-05-07T11:34:09.624Z,60.17
2023-05-07T11:35:09.672Z,65.20
2023-05-07T11:36:09.615Z,61.17
2023-05-07T11:37:09.613Z,62.40
2023-05-07T11:38:09.602Z,57.49
2023-05-07T11:39:09.590Z,61.97
2023-05-07T11:40:09.602Z,61.66
2023-05-07T11:41:09.577Z,62.71
2023-05-07T11:42:09.566Z,64.33
2023-05-07T11:43:09.553Z,62.86
2023-05-07T11:44:09.549Z,61.25
2023-05-07T11:45:09.696Z,62.21
2023-05-07T11:46:09.561Z,60.14
2023-05-07T11:47:09.528Z,60.31
2023-05-07T11:48:09.529Z,61.93
2023-05-07T11:49:09.547Z,61.72
2023-05-07T11:50:09.550Z,62.43
2023-05-07T11:51:09.490Z,58.39
2023-05-07T11:52:09.505Z,63.31
2023-05-07T11:53:09.482Z,62.50
2023-05-07T11:54:09.495Z,61.94
2023-05-07T11:55:09.631Z,62.03
2023-05-07T11:56:09.459Z,59.09
2023-05-07T11:57:09.449Z,62.60
2023-05-07T11:58:10.833Z,64.23
2023-05-07T11:59:10.461Z,65.87
2023-05-07T12:00:09.417Z,61.82
2023-05-07T12:01:09.419Z,60.87
2023-05-07T12:02:09.521Z,57.76
2023-05-07T12:03:09.607Z,61.40
2023-05-07T12:04:09.608Z,66.22
2023-05-07T12:05:09.565Z,63.27
2023-05-07T12:06:09.375Z,59.37
2023-05-07T12:07:09.368Z,62.56
2023-05-07T12:08:09.383Z,62.26
2023-05-07T12:09:09.348Z,60.30
2023-05-07T12:10:09.437Z,64.22
2023-05-07T12:11:09.346Z,59.29
2023-05-07T12:12:09.352Z,62.74
2023-05-07T12:13:09.378Z,60.93
2023-05-07T12:14:12.060Z,62.92
2023-05-07T12:15:10.519Z,64.90
2023-05-07T12:16:09.299Z,61.50
2023-05-07T12:17:09.349Z,62.49
2023-05-07T12:18:09.365Z,61.69
2023-05-07T12:19:09.287Z,60.54
2023-05-07T12:20:09.353Z,60.77
2023-05-07T12:21:09.301Z,63.79
2023-05-07T12:22:09.250Z,59.84
2023-05-07T12:23:09.263Z,59.40
2023-05-07T12:24:09.254Z,61.52
2023-05-07T12:25:09.299Z,60.13
2023-05-07T12:26:09.216Z,65.24
2023-05-07T12:27:09.256Z,64.48
2023-05-07T12:28:09.226Z,58.87
2023-05-07T12:29:09.195Z,64.03
2023-05-07T12:30:09.263Z,61.83
2023-05-07T12:31:09.267Z,60.98
2023-05-07T12:32:09.249Z,60.06
2023-05-07T12:33:09.223Z,59.42
2023-05-07T12:34:09.159Z,61.80
2023-05-07T12:35:09.221Z,61.65
2023-05-07T12:36:09.152Z,59.35
2023-05-07T12:37:09.151Z,61.67
2023-05-07T12:38:09.126Z,62.04
2023-05-07T12:39:09.121Z,59.61
2023-05-07T12:40:09.181Z,57.11
2023-05-07T12:41:09.136Z,59.71
2023-05-07T12:42:09.123Z,62.37
2023-05-07T12:43:09.104Z,62.61
2023-05-07T12:44:09.081Z,65.84
2023-05-07T12:45:09.223Z,62.21
2023-05-07T12:46:09.661Z,62.41
2023-05-07T12:47:09.059Z,63.88
2023-05-07T12:48:09.088Z,61.76
2023-05-07T12:49:09.076Z,65.30
2023-05-07T12:50:09.034Z,62.17
2023-05-07T12:51:09.053Z,61.26
2023-05-07T12:52:09.021Z,59.00